Terminal Aerodrome Forecast
Issued by NWS Sterling, VA

Current Version | Previous Version | Graphics & Text | Print | Product List | Glossary On
Versions: 1 2 3 4 5 6 7 8 9 10 11 12 13 14 15 16 17 18 19 20 21 22 23
000
FTUS41 KLWX 161025 AAB
TAFDCA
TAF AMD
KDCA 161025Z 1610/1706 00000KT 4SM BR SCT003 SCT250
      TEMPO 1610/1612 2SM BR BKN003
     FM161300 VRB03KT P6SM BKN020
     FM161500 35004KT P6SM SCT050 SCT250=

USA.gov is the U.S. government's official web portal to all federal, state and local government web resources and services.